Time;durP1;ratioP1;P1;durP2;ratioP2;P2;SDS_P1;SDS_P2;PMS_P1;PMS_P2;Temp;Humidity;BMP_temperature;BMP_pressure;BME280_temperature;BME280_humidity;BME280_pressure;Samples;Min_cycle;Max_cycle;Signal;HPM_P1;HPM_P2
2022/04/24 00:00:01;;;;;;;8.97;6.13;;;10.20;99.90;;;;;;5018762;28;20087;-82
2022/04/24 00:02:27;;;;;;;8.82;6.32;;;10.20;99.90;;;;;;5031896;28;20037;-81
2022/04/24 00:04:53;;;;;;;7.47;6.05;;;10.20;99.90;;;;;;5033906;28;20029;-81
2022/04/24 00:07:19;;;;;;;7.80;6.40;;;10.20;99.90;;;;;;5015584;28;20225;-81
2022/04/24 00:09:45;;;;;;;7.85;5.85;;;10.10;99.90;;;;;;5035172;28;20128;-81
2022/04/24 00:12:15;;;;;;;9.20;6.10;;;10.10;99.90;;;;;;5035097;28;20041;-81
2022/04/24 00:14:45;;;;;;;7.53;6.00;;;10.10;99.90;;;;;;5033465;28;20044;-82
2022/04/24 00:17:15;;;;;;;10.48;6.30;;;10.10;99.90;;;;;;5016633;28;20055;-82
2022/04/24 00:19:40;;;;;;;8.80;6.28;;;10.00;99.90;;;;;;5030214;28;20418;-82
2022/04/24 00:22:06;;;;;;;7.70;6.40;;;10.00;99.90;;;;;;5031314;28;20041;-81
2022/04/24 00:24:32;;;;;;;9.55;6.40;;;10.00;99.90;;;;;;5031865;28;20448;-81
2022/04/24 00:26:59;;;;;;;8.52;6.57;;;9.90;99.90;;;;;;5031469;28;20116;-81
2022/04/24 00:29:25;;;;;;;7.65;6.35;;;9.90;99.90;;;;;;5034607;28;20073;-82
2022/04/24 00:31:51;;;;;;;8.23;6.45;;;9.80;99.90;;;;;;5014812;28;20034;-82
2022/04/24 00:34:17;;;;;;;8.18;6.57;;;9.80;99.90;;;;;;5033131;28;20063;-81
2022/04/24 00:36:45;;;;;;;9.45;6.60;;;9.70;99.90;;;;;;5032538;28;20040;-82
2022/04/24 00:39:12;;;;;;;7.65;6.28;;;9.80;99.90;;;;;;5015654;28;20080;-82
2022/04/24 00:41:48;;;;;;;7.20;6.20;;;9.80;99.90;;;;;;5034538;28;20463;-82
2022/04/24 00:44:17;;;;;;;8.05;6.30;;;9.70;99.90;;;;;;5033783;28;20115;-82
2022/04/24 00:46:51;;;;;;;8.73;6.55;;;9.70;99.90;;;;;;5032754;28;20126;-82
2022/04/24 00:49:17;;;;;;;7.20;5.93;;;9.70;99.90;;;;;;5017355;28;20125;-81
2022/04/24 00:51:43;;;;;;;9.15;6.35;;;9.70;99.90;;;;;;5034863;28;20467;-81
2022/04/24 00:54:10;;;;;;;8.18;6.05;;;9.60;99.90;;;;;;5016512;28;20050;-81
2022/04/24 00:56:42;;;;;;;7.80;6.40;;;9.60;99.90;;;;;;5031080;28;20052;-81
2022/04/24 00:59:09;;;;;;;8.07;6.65;;;9.60;99.90;;;;;;5034278;28;20876;-81
2022/04/24 01:01:36;;;;;;;9.95;6.38;;;9.60;99.90;;;;;;5017928;28;20064;-82
2022/04/24 01:04:05;;;;;;;9.23;7.32;;;9.60;99.90;;;;;;5029626;28;20076;-81
2022/04/24 01:06:33;;;;;;;7.75;6.20;;;9.60;99.90;;;;;;5033752;28;20066;-82
2022/04/24 01:09:31;;;;;;;8.65;6.35;;;9.70;99.90;;;;;;5033528;28;20041;-83
2022/04/24 01:11:56;;;;;;;8.32;6.55;;;9.60;99.90;;;;;;5022125;28;20061;-82
2022/04/24 01:14:25;;;;;;;9.63;6.30;;;9.70;99.90;;;;;;5031610;28;20052;-81
2022/04/24 01:16:51;;;;;;;8.30;6.30;;;9.60;99.90;;;;;;5017269;28;20069;-82
2022/04/24 01:19:18;;;;;;;9.32;7.05;;;9.60;99.90;;;;;;5032225;28;20045;-81
2022/04/24 01:21:45;;;;;;;9.18;6.53;;;9.50;99.90;;;;;;5032844;28;20051;-82
2022/04/24 01:24:13;;;;;;;8.00;6.60;;;9.50;99.90;;;;;;5011730;28;20045;-82
2022/04/24 01:26:40;;;;;;;8.65;6.50;;;9.50;99.90;;;;;;5032801;28;20040;-81
2022/04/24 01:29:06;;;;;;;7.85;6.45;;;9.50;99.90;;;;;;5017158;28;20049;-82
2022/04/24 01:31:32;;;;;;;8.77;6.88;;;9.50;99.90;;;;;;5032543;28;20037;-81
2022/04/24 01:33:59;;;;;;;8.95;6.55;;;9.50;99.90;;;;;;5031021;28;21629;-82
2022/04/24 01:36:24;;;;;;;8.48;6.70;;;9.40;99.90;;;;;;5015029;28;20073;-81
2022/04/24 01:38:50;;;;;;;8.98;6.82;;;9.40;99.90;;;;;;5032623;28;20079;-82
2022/04/24 01:41:16;;;;;;;8.93;6.83;;;9.40;99.90;;;;;;5033542;28;20052;-81
2022/04/24 01:43:42;;;;;;;10.03;6.90;;;9.40;99.90;;;;;;5029938;28;20112;-81
2022/04/24 01:46:08;;;;;;;8.02;6.53;;;9.40;99.90;;;;;;5028938;28;20045;-81
2022/04/24 01:48:35;;;;;;;9.98;6.57;;;9.30;99.90;;;;;;5032142;28;20044;-81
2022/04/24 01:51:02;;;;;;;9.70;6.43;;;9.30;99.90;;;;;;5042588;28;20064;-81
2022/04/24 01:53:31;;;;;;;10.05;6.70;;;9.30;99.90;;;;;;5033610;28;20049;-82
2022/04/24 01:55:58;;;;;;;9.30;6.57;;;9.30;99.90;;;;;;5032169;28;20043;-82
2022/04/24 01:58:25;;;;;;;7.55;5.90;;;9.30;99.90;;;;;;5033124;28;20049;-82
2022/04/24 02:00:51;;;;;;;7.40;6.28;;;9.30;99.90;;;;;;5031189;28;20140;-81
2022/04/24 02:03:17;;;;;;;;;;;9.20;99.90;;;;;;5033292;28;20493;-81
2022/04/24 02:05:43;;;;;;;7.72;6.53;;;9.20;99.90;;;;;;5044195;28;19970;-81
2022/04/24 02:08:09;;;;;;;7.97;6.00;;;9.20;99.90;;;;;;5031478;28;20103;-82
2022/04/24 02:10:35;;;;;;;9.05;6.22;;;9.20;99.90;;;;;;5014104;28;20051;-82
2022/04/24 02:13:01;;;;;;;8.73;6.40;;;9.20;99.90;;;;;;5014243;28;20036;-81
2022/04/24 02:15:28;;;;;;;7.65;6.30;;;9.20;99.90;;;;;;5000561;28;20807;-82
2022/04/24 02:17:57;;;;;;;7.82;6.38;;;9.20;99.90;;;;;;4997254;28;20092;-81
2022/04/24 02:20:24;;;;;;;9.70;6.20;;;9.20;99.90;;;;;;5029720;28;20521;-82
2022/04/24 02:22:50;;;;;;;;;;;9.00;99.90;;;;;;5015881;28;20037;-81
2022/04/24 02:25:17;;;;;;;9.38;7.18;;;9.00;99.90;;;;;;5029022;28;19925;-82
2022/04/24 02:27:43;;;;;;;8.75;7.18;;;8.90;99.90;;;;;;5013192;28;20044;-82
2022/04/24 02:30:09;;;;;;;8.32;7.18;;;8.80;99.90;;;;;;5032361;28;20063;-82
2022/04/24 02:32:35;;;;;;;9.18;7.25;;;8.70;99.90;;;;;;5015661;28;20096;-82
2022/04/24 02:35:01;;;;;;;10.50;7.53;;;8.70;99.90;;;;;;5029434;28;20049;-81
2022/04/24 02:37:27;;;;;;;8.40;7.33;;;8.70;99.90;;;;;;5015299;28;20044;-81
2022/04/24 02:39:53;;;;;;;9.40;7.32;;;8.60;99.90;;;;;;5030592;28;20339;-82
2022/04/24 02:42:19;;;;;;;9.98;7.82;;;8.50;99.90;;;;;;5030554;28;20045;-82
2022/04/24 02:44:45;;;;;;;10.80;7.85;;;8.40;99.90;;;;;;5032435;28;20095;-82
2022/04/24 02:47:11;;;;;;;8.98;7.50;;;8.50;99.90;;;;;;4998878;28;20519;-82
2022/04/24 02:49:37;;;;;;;10.82;7.45;;;8.40;99.90;;;;;;5032791;28;20041;-82
2022/04/24 02:52:03;;;;;;;10.90;7.03;;;8.30;99.90;;;;;;5030935;28;20047;-82
2022/04/24 02:54:28;;;;;;;9.40;7.45;;;8.30;99.90;;;;;;5016482;28;20041;-81
2022/04/24 02:56:54;;;;;;;10.37;7.63;;;8.20;99.90;;;;;;5032113;28;20063;-81
2022/04/24 02:59:20;;;;;;;9.20;7.07;;;8.20;99.90;;;;;;5040514;28;20303;-81
2022/04/24 03:01:46;;;;;;;10.07;7.40;;;8.20;99.90;;;;;;5030860;28;20056;-82
2022/04/24 03:04:12;;;;;;;11.85;7.78;;;8.20;99.90;;;;;;5015969;28;20072;-82
2022/04/24 03:06:38;;;;;;;;;;;8.10;99.90;;;;;;5012925;28;20041;-82
2022/04/24 03:09:05;;;;;;;10.57;8.35;;;8.10;99.90;;;;;;5015633;28;20297;-82
2022/04/24 03:11:31;;;;;;;;;;;8.10;99.90;;;;;;5029769;28;20045;-81
2022/04/24 03:13:57;;;;;;;10.20;7.70;;;8.00;99.90;;;;;;5032437;28;20361;-81
2022/04/24 03:16:22;;;;;;;15.15;8.00;;;8.00;99.90;;;;;;5032230;28;20044;-81
2022/04/24 03:18:48;;;;;;;11.90;8.02;;;7.90;99.90;;;;;;5028999;28;20045;-80
2022/04/24 03:21:14;;;;;;;10.02;7.88;;;7.90;99.90;;;;;;5031921;28;20559;-82
2022/04/24 03:23:40;;;;;;;12.18;8.65;;;7.90;99.90;;;;;;5036295;28;20045;-82
2022/04/24 03:26:06;;;;;;;9.97;7.93;;;8.00;99.90;;;;;;5036240;28;20044;-81
2022/04/24 03:28:32;;;;;;;10.35;8.30;;;7.90;99.90;;;;;;5033961;28;20037;-82
2022/04/24 03:30:58;;;;;;;14.10;8.52;;;8.00;99.90;;;;;;5032957;28;20053;-81
2022/04/24 03:33:24;;;;;;;9.23;7.97;;;7.90;99.90;;;;;;5016880;28;20045;-81
2022/04/24 03:35:49;;;;;;;10.13;7.80;;;7.80;99.90;;;;;;5034000;28;20295;-81
2022/04/24 03:38:15;;;;;;;10.40;7.73;;;7.90;99.90;;;;;;5032573;28;20041;-81
2022/04/24 03:40:41;;;;;;;11.68;7.72;;;7.70;99.90;;;;;;5032473;28;20389;-81
2022/04/24 03:43:06;;;;;;;9.57;7.53;;;7.80;99.90;;;;;;5032415;28;20045;-82
2022/04/24 03:45:32;;;;;;;11.50;7.90;;;7.70;99.90;;;;;;5035194;28;20833;-82
2022/04/24 03:47:58;;;;;;;9.67;7.20;;;7.70;99.90;;;;;;5018924;28;20041;-82
2022/04/24 03:50:23;;;;;;;9.77;8.37;;;7.70;99.90;;;;;;5033840;28;20037;-82
2022/04/24 03:52:49;;;;;;;11.85;8.05;;;7.70;99.90;;;;;;5016204;28;20095;-82
2022/04/24 03:55:15;;;;;;;11.55;7.68;;;7.70;99.90;;;;;;5034700;28;20037;-82
2022/04/24 03:57:41;;;;;;;9.20;7.18;;;7.70;99.90;;;;;;5035486;28;20037;-82
2022/04/24 04:00:08;;;;;;;8.55;7.43;;;7.70;99.90;;;;;;5016794;28;20095;-81
2022/04/24 04:02:47;;;;;;;9.63;7.70;;;7.70;99.90;;;;;;5035655;28;20366;-81
2022/04/24 04:05:13;;;;;;;9.80;7.10;;;7.60;99.90;;;;;;5031674;28;20044;-82
2022/04/24 04:07:39;;;;;;;;;;;7.60;99.90;;;;;;5034819;28;20037;-81
2022/04/24 04:10:06;;;;;;;12.38;8.07;;;7.60;99.90;;;;;;5032425;28;20323;-81
2022/04/24 04:12:32;;;;;;;11.85;7.65;;;7.60;99.90;;;;;;5002752;28;20098;-81
2022/04/24 04:15:01;;;;;;;9.93;7.35;;;7.60;99.90;;;;;;5032162;28;20087;-83
2022/04/24 04:17:27;;;;;;;9.73;7.63;;;7.50;99.90;;;;;;5034439;28;20033;-81
2022/04/24 04:19:52;;;;;;;8.75;7.30;;;7.50;99.90;;;;;;5034993;28;20509;-82
2022/04/24 04:22:19;;;;;;;13.13;7.20;;;7.50;99.90;;;;;;5034644;28;20041;-82
2022/04/24 04:24:44;;;;;;;12.50;7.53;;;7.50;99.90;;;;;;5031728;28;20038;-82
2022/04/24 04:27:10;;;;;;;9.60;7.45;;;7.50;99.90;;;;;;5032306;28;20044;-81
2022/04/24 04:29:36;;;;;;;9.45;7.30;;;7.50;99.90;;;;;;5015532;28;20533;-83
2022/04/24 04:32:03;;;;;;;9.82;7.60;;;7.50;99.90;;;;;;5017201;28;20053;-82
2022/04/24 04:34:28;;;;;;;13.05;7.35;;;7.50;99.90;;;;;;5034413;28;20048;-81
2022/04/24 04:36:54;;;;;;;9.67;7.27;;;7.50;99.90;;;;;;5031808;28;20076;-83
2022/04/24 04:39:20;;;;;;;10.47;7.83;;;7.40;99.90;;;;;;5014523;28;20114;-81
2022/04/24 04:41:46;;;;;;;9.05;6.88;;;7.50;99.90;;;;;;5031651;28;20276;-82
2022/04/24 04:44:12;;;;;;;11.48;8.00;;;7.50;99.90;;;;;;5034365;28;20075;-82
2022/04/24 04:46:38;;;;;;;10.07;7.40;;;8.00;99.90;;;;;;5033015;28;20389;-81
2022/04/24 04:49:04;;;;;;;11.50;8.07;;;7.60;99.90;;;;;;5000125;28;20044;-82
2022/04/24 04:51:30;;;;;;;9.90;7.00;;;7.50;99.90;;;;;;5031873;28;20582;-81
2022/04/24 04:53:56;;;;;;;8.75;7.50;;;7.60;99.90;;;;;;5031958;28;20132;-81
2022/04/24 04:56:23;;;;;;;10.45;7.32;;;7.50;99.90;;;;;;5031149;28;20073;-82
2022/04/24 04:58:49;;;;;;;10.55;7.47;;;7.60;99.90;;;;;;5015915;28;20555;-82
2022/04/24 05:01:15;;;;;;;14.80;8.00;;;7.60;99.90;;;;;;5030830;28;20037;-82
2022/04/24 05:03:41;;;;;;;10.90;7.22;;;7.70;99.90;;;;;;5029465;28;20107;-81
2022/04/24 05:06:07;;;;;;;12.63;7.53;;;8.30;99.90;;;;;;5034404;28;20040;-82
2022/04/24 05:08:33;;;;;;;10.65;6.93;;;7.70;99.90;;;;;;5030657;28;20072;-82
2022/04/24 05:10:59;;;;;;;11.07;7.60;;;7.70;99.90;;;;;;5031201;28;20045;-82
2022/04/24 05:13:25;;;;;;;11.25;7.43;;;7.80;99.90;;;;;;5031009;28;20079;-81
2022/04/24 05:15:51;;;;;;;9.88;7.45;;;7.80;99.90;;;;;;5030825;28;20072;-82
2022/04/24 05:18:16;;;;;;;10.85;7.60;;;7.80;99.90;;;;;;5032937;28;20037;-82
2022/04/24 05:20:43;;;;;;;10.25;7.45;;;7.90;99.90;;;;;;5008551;28;20077;-83
2022/04/24 05:23:09;;;;;;;10.93;8.32;;;7.90;99.90;;;;;;5018663;28;20088;-82
2022/04/24 05:25:36;;;;;;;13.10;8.68;;;7.90;99.90;;;;;;5003999;28;20034;-81
2022/04/24 05:28:05;;;;;;;14.18;8.40;;;7.90;99.90;;;;;;5014453;28;20116;-81
2022/04/24 05:30:32;;;;;;;10.52;8.10;;;7.90;99.90;;;;;;5018106;28;20038;-82
2022/04/24 05:32:58;;;;;;;13.18;8.43;;;7.90;99.90;;;;;;5007137;28;20347;-82
2022/04/24 05:35:24;;;;;;;11.30;8.23;;;8.00;99.90;;;;;;5022853;28;20409;-82
2022/04/24 05:37:50;;;;;;;12.50;8.57;;;8.10;99.90;;;;;;5000550;28;20087;-81
2022/04/24 05:40:16;;;;;;;12.73;8.18;;;8.10;99.90;;;;;;5021842;28;20056;-82
2022/04/24 05:42:53;;;;;;;12.55;8.57;;;8.20;99.90;;;;;;5020511;28;20045;-81
2022/04/24 05:45:22;;;;;;;12.68;8.52;;;8.20;99.90;;;;;;5014883;28;20045;-81
2022/04/24 05:47:54;;;;;;;13.55;9.15;;;8.20;99.90;;;;;;5021033;28;20034;-82
2022/04/24 05:50:21;;;;;;;13.48;8.40;;;8.40;99.90;;;;;;5008931;28;20498;-81
2022/04/24 05:52:47;;;;;;;12.88;8.25;;;8.60;99.90;;;;;;5024989;28;20049;-81
2022/04/24 05:55:13;;;;;;;11.48;8.02;;;8.80;99.90;;;;;;5000884;28;20389;-82
2022/04/24 05:57:39;;;;;;;12.25;8.20;;;8.90;99.90;;;;;;4983975;28;20370;-82
2022/04/24 06:00:07;;;;;;;12.18;8.50;;;9.10;99.90;;;;;;5027895;28;20041;-81
2022/04/24 06:02:33;;;;;;;11.07;7.70;;;9.20;99.90;;;;;;5017074;28;20045;-80
2022/04/24 06:04:58;;;;;;;12.27;7.70;;;9.30;99.90;;;;;;5003892;28;20142;-82
2022/04/24 06:07:24;;;;;;;11.47;7.53;;;9.30;99.90;;;;;;5003123;28;20073;-82
2022/04/24 06:09:50;;;;;;;9.90;6.97;;;9.30;99.90;;;;;;5016655;28;20326;-81
2022/04/24 06:12:17;;;;;;;12.65;7.63;;;9.50;99.90;;;;;;5017205;28;20179;-81
2022/04/24 06:14:42;;;;;;;;;;;9.90;99.90;;;;;;5020396;28;20121;-81
2022/04/24 06:17:08;;;;;;;9.52;6.20;;;9.70;99.90;;;;;;5017665;28;20285;-81
2022/04/24 06:19:34;;;;;;;10.05;6.30;;;9.90;99.90;;;;;;5005128;28;20052;-81
2022/04/24 06:22:00;;;;;;;11.60;6.53;;;10.00;99.90;;;;;;5030592;28;20037;-82
2022/04/24 06:24:26;;;;;;;10.25;6.13;;;9.90;99.90;;;;;;5030350;28;20130;-82
2022/04/24 06:26:52;;;;;;;10.75;5.53;;;10.00;99.90;;;;;;4997859;28;20064;-82
2022/04/24 06:29:18;;;;;;;9.65;6.03;;;10.00;99.90;;;;;;5029953;28;20497;-82
2022/04/24 06:31:44;;;;;;;7.28;5.10;;;10.30;99.90;;;;;;5029926;28;20033;-84
2022/04/24 06:34:10;;;;;;;9.00;5.73;;;10.60;99.90;;;;;;5014667;28;20144;-83
2022/04/24 06:36:36;;;;;;;;;;;11.00;99.90;;;;;;5031405;28;20683;-83
2022/04/24 06:39:02;;;;;;;8.10;5.25;;;11.20;99.90;;;;;;5032665;28;19967;-83
2022/04/24 06:41:28;;;;;;;9.07;4.97;;;11.70;99.90;;;;;;5005079;28;20045;-83
2022/04/24 06:43:54;;;;;;;6.97;4.60;;;11.60;99.90;;;;;;5032811;28;20412;-83
2022/04/24 06:46:20;;;;;;;7.68;4.63;;;11.70;99.90;;;;;;5028891;28;20037;-82
2022/04/24 06:48:46;;;;;;;6.40;4.03;;;12.10;99.90;;;;;;5014108;28;20086;-83
2022/04/24 06:51:12;;;;;;;5.63;3.97;;;12.10;99.90;;;;;;5031925;28;20056;-83
2022/04/24 06:53:38;;;;;;;5.68;3.70;;;12.40;99.90;;;;;;5031679;28;20044;-83
2022/04/24 06:56:04;;;;;;;5.57;3.42;;;12.40;99.90;;;;;;5014759;28;20082;-82
2022/04/24 06:58:30;;;;;;;5.18;3.53;;;12.90;99.90;;;;;;5028514;28;20045;-81
2022/04/24 07:00:56;;;;;;;4.80;3.13;;;12.80;99.90;;;;;;5015817;28;20045;-81
2022/04/24 07:03:24;;;;;;;5.68;3.40;;;12.80;99.90;;;;;;5032241;28;20041;-82
2022/04/24 07:05:53;;;;;;;5.13;2.85;;;12.80;99.90;;;;;;5029179;28;20037;-82
2022/04/24 07:08:21;;;;;;;5.13;2.90;;;12.80;99.90;;;;;;5027965;28;20044;-82
2022/04/24 07:10:47;;;;;;;7.70;2.78;;;13.30;99.90;;;;;;5031977;28;20045;-82
2022/04/24 07:13:13;;;;;;;4.57;2.67;;;13.20;99.90;;;;;;5015373;28;20071;-81
2022/04/24 07:15:39;;;;;;;4.80;2.88;;;13.70;99.90;;;;;;5030405;28;20049;-82
2022/04/24 07:18:05;;;;;;;;;;;13.40;99.90;;;;;;5032665;28;20126;-82
2022/04/24 07:20:31;;;;;;;6.18;2.58;;;13.50;99.90;;;;;;5026661;28;19921;-83
2022/04/24 07:23:01;;;;;;;4.10;2.30;;;13.60;99.90;;;;;;5032280;28;20053;-83
2022/04/24 07:25:39;;;;;;;4.43;2.70;;;13.90;99.90;;;;;;5032065;28;20037;-83
2022/04/24 07:28:05;;;;;;;6.07;2.33;;;14.10;99.90;;;;;;5027323;28;20151;-82
2022/04/24 07:30:30;;;;;;;5.35;2.00;;;14.20;99.90;;;;;;5012498;28;20561;-83
2022/04/24 07:32:57;;;;;;;2.80;1.83;;;14.50;99.90;;;;;;5028910;28;20122;-82
2022/04/24 07:35:25;;;;;;;2.90;1.90;;;14.70;99.90;;;;;;5032067;28;20099;-82
2022/04/24 07:37:52;;;;;;;3.35;1.95;;;14.90;99.90;;;;;;5030239;28;20120;-83
2022/04/24 07:40:21;;;;;;;4.25;2.05;;;14.80;99.90;;;;;;5030271;28;20045;-83
2022/04/24 07:42:55;;;;;;;4.30;1.70;;;15.00;99.90;;;;;;5012325;28;20037;-83
2022/04/24 07:45:32;;;;;;;3.13;1.92;;;14.80;99.90;;;;;;5026493;28;20120;-83
2022/04/24 07:47:59;;;;;;;4.78;1.60;;;14.90;99.90;;;;;;5028581;28;20137;-82
2022/04/24 07:50:30;;;;;;;5.05;2.28;;;15.30;99.90;;;;;;5030691;28;20053;-83
2022/04/24 07:52:56;;;;;;;2.67;1.70;;;15.70;99.90;;;;;;5029725;28;20497;-84
2022/04/24 07:55:24;;;;;;;2.80;1.80;;;15.60;99.20;;;;;;5029729;28;20032;-82
2022/04/24 07:57:52;;;;;;;4.22;2.00;;;15.60;99.10;;;;;;5031302;28;20038;-82
2022/04/24 08:00:18;;;;;;;3.17;1.80;;;15.80;99.00;;;;;;5012420;28;20038;-82
2022/04/24 08:02:50;;;;;;;3.97;1.83;;;16.00;98.80;;;;;;5015873;28;20045;-82
2022/04/24 08:05:26;;;;;;;3.70;2.08;;;15.80;99.00;;;;;;5029101;28;20037;-82
2022/04/24 08:07:53;;;;;;;4.75;2.00;;;16.40;99.50;;;;;;5033573;28;20051;-83
2022/04/24 08:10:21;;;;;;;4.22;2.20;;;16.40;98.70;;;;;;5033436;28;20045;-84
2022/04/24 08:12:47;;;;;;;3.65;2.20;;;16.30;98.70;;;;;;5016956;28;20552;-83
2022/04/24 08:15:13;;;;;;;3.65;2.22;;;16.00;98.30;;;;;;5033252;28;20052;-83
2022/04/24 08:17:39;;;;;;;5.03;2.40;;;16.10;99.10;;;;;;5030930;28;20041;-82
2022/04/24 08:20:07;;;;;;;4.28;2.20;;;16.40;98.80;;;;;;5026130;28;20064;-83
2022/04/24 08:22:40;;;;;;;5.07;2.10;;;16.60;98.70;;;;;;5034437;28;20764;-83
2022/04/24 08:25:07;;;;;;;4.88;2.38;;;16.90;97.50;;;;;;5015606;28;20081;-83
2022/04/24 08:27:34;;;;;;;4.20;2.10;;;16.80;97.80;;;;;;5018904;28;20044;-83
2022/04/24 08:30:00;;;;;;;5.55;2.30;;;16.70;98.00;;;;;;5017385;28;20048;-84
2022/04/24 08:32:26;;;;;;;5.38;2.33;;;17.10;97.40;;;;;;5034821;28;20044;-83
2022/04/24 08:34:52;;;;;;;4.32;2.47;;;17.20;96.70;;;;;;5034688;28;20122;-83
2022/04/24 08:37:17;;;;;;;4.55;2.60;;;17.50;96.80;;;;;;5034745;28;20041;-84
2022/04/24 08:39:43;;;;;;;5.97;2.42;;;17.40;96.10;;;;;;5018248;28;20029;-83
2022/04/24 08:42:09;;;;;;;4.43;2.35;;;17.00;96.20;;;;;;5033675;28;20083;-84
2022/04/24 08:44:36;;;;;;;;;;;17.00;96.10;;;;;;5031551;28;20115;-83
2022/04/24 08:47:39;;;;;;;3.45;2.20;;;17.50;96.20;;;;;;5032404;28;20384;-82
2022/04/24 08:50:05;;;;;;;4.25;2.40;;;17.60;95.40;;;;;;5013223;28;20127;-83
2022/04/24 08:52:31;;;;;;;4.68;2.40;;;17.70;95.10;;;;;;5013985;28;20628;-84
2022/04/24 08:54:59;;;;;;;4.70;2.38;;;17.60;95.60;;;;;;5001160;28;20037;-82
2022/04/24 08:57:30;;;;;;;5.75;2.50;;;17.80;94.70;;;;;;5016824;28;20119;-82
2022/04/24 09:00:00;;;;;;;6.43;2.42;;;17.80;95.00;;;;;;4997381;28;20037;-83
2022/04/24 09:02:26;;;;;;;4.95;2.22;;;17.70;95.00;;;;;;5014647;28;20047;-83
2022/04/24 09:04:53;;;;;;;6.45;2.50;;;17.90;94.60;;;;;;5014109;28;20069;-82
2022/04/24 09:07:20;;;;;;;5.03;2.20;;;17.70;94.50;;;;;;4999912;28;20033;-82
2022/04/24 09:09:51;;;;;;;5.13;2.00;;;17.70;94.20;;;;;;5016707;28;20041;-83
2022/04/24 09:12:25;;;;;;;4.90;2.60;;;18.00;94.60;;;;;;5017766;28;20099;-83
2022/04/24 09:14:53;;;;;;;5.43;2.53;;;18.40;94.50;;;;;;5015161;28;20108;-83
2022/04/24 09:17:24;;;;;;;3.53;2.17;;;18.00;94.00;;;;;;5015729;28;20045;-83
2022/04/24 09:19:52;;;;;;;4.40;2.45;;;18.40;94.00;;;;;;4999997;28;20037;-84
2022/04/24 09:22:19;;;;;;;4.55;2.30;;;18.40;93.70;;;;;;5015236;28;20059;-82
2022/04/24 09:24:49;;;;;;;;;;;18.30;93.10;;;;;;5015566;28;20037;-83
2022/04/24 09:27:34;;;;;;;3.90;2.53;;;18.40;93.20;;;;;;5012599;28;19929;-83
2022/04/24 09:30:14;;;;;;;3.30;2.17;;;18.30;93.40;;;;;;5031570;28;20404;-83
2022/04/24 09:32:51;;;;;;;6.32;2.50;;;18.50;94.00;;;;;;5014061;28;20131;-84
2022/04/24 09:35:26;;;;;;;4.18;2.60;;;18.20;93.70;;;;;;5014103;28;20409;-85
2022/04/24 09:37:52;;;;;;;4.75;2.40;;;18.50;93.20;;;;;;5031428;28;20037;-84
2022/04/24 09:40:19;;;;;;;6.15;2.97;;;18.70;93.30;;;;;;5013671;28;20056;-84
2022/04/24 09:42:59;;;;;;;3.95;2.65;;;18.90;93.70;;;;;;5014494;28;20485;-85
2022/04/24 09:45:25;;;;;;;5.40;2.22;;;18.70;92.70;;;;;;4998217;28;20033;-84
2022/04/24 09:48:00;;;;;;;4.35;2.35;;;18.90;91.80;;;;;;4996117;28;20480;-84
2022/04/24 09:50:29;;;;;;;2.78;2.00;;;19.20;92.40;;;;;;5014188;28;20052;-84
2022/04/24 09:52:57;;;;;;;4.15;2.20;;;18.90;92.00;;;;;;5015008;28;20055;-84
2022/04/24 09:55:27;;;;;;;3.75;2.05;;;19.10;91.70;;;;;;5032136;28;20103;-84
2022/04/24 09:57:54;;;;;;;3.70;1.90;;;19.50;90.70;;;;;;5028983;28;20037;-83
2022/04/24 10:00:21;;;;;;;4.20;2.10;;;19.20;90.80;;;;;;5030087;28;20037;-84
2022/04/24 10:02:50;;;;;;;4.13;1.80;;;19.20;91.20;;;;;;5028896;28;20558;-85
2022/04/24 10:05:53;;;;;;;3.80;2.00;;;19.50;92.00;;;;;;5014375;28;20544;-83
2022/04/24 10:08:19;;;;;;;3.63;1.90;;;19.40;91.40;;;;;;5029236;28;20125;-83
2022/04/24 10:10:45;;;;;;;2.85;1.83;;;19.60;91.70;;;;;;5032993;28;20128;-83
2022/04/24 10:13:12;;;;;;;3.53;2.10;;;19.50;90.60;;;;;;5014964;28;20055;-81
2022/04/24 10:16:16;;;;;;;4.18;1.90;;;19.40;91.30;;;;;;5021229;28;20115;-84
2022/04/24 10:19:10;;;;;;;5.78;2.20;;;19.80;91.30;;;;;;5031090;28;20075;-83
2022/04/24 10:21:54;;;;;;;5.38;1.75;;;20.60;91.30;;;;;;5012876;28;20053;-84
2022/04/24 10:24:20;;;;;;;3.95;1.63;;;20.60;90.30;;;;;;5032473;28;20068;-82
2022/04/24 10:26:59;;;;;;;4.70;2.17;;;20.70;90.70;;;;;;5031884;28;20044;-82
2022/04/24 10:29:25;;;;;;;4.13;1.75;;;20.40;90.90;;;;;;5017994;28;20033;-85
2022/04/24 10:31:52;;;;;;;2.50;1.58;;;20.50;88.70;;;;;;5016777;28;20042;-83
2022/04/24 10:34:19;;;;;;;3.15;2.03;;;20.80;88.00;;;;;;5018000;28;20037;-82
2022/04/24 10:36:55;;;;;;;5.63;1.65;;;21.00;87.90;;;;;;5017988;28;20079;-85
2022/04/24 10:39:24;;;;;;;2.97;1.88;;;20.80;87.50;;;;;;5031901;28;20535;-85
2022/04/24 10:41:59;;;;;;;2.67;1.77;;;20.70;87.30;;;;;;5029638;28;20038;-85
2022/04/24 10:44:26;;;;;;;3.40;1.77;;;20.50;88.20;;;;;;5031285;28;20048;-85
2022/04/24 10:46:54;;;;;;;3.03;1.60;;;20.40;89.50;;;;;;5030570;28;20047;-85
2022/04/24 10:49:23;;;;;;;4.93;1.70;;;20.50;88.40;;;;;;5030914;28;20067;-85
2022/04/24 10:52:03;;;;;;;3.08;1.70;;;20.50;88.50;;;;;;5032865;28;20086;-84
2022/04/24 10:54:37;;;;;;;4.70;1.77;;;20.70;87.70;;;;;;5014462;28;20033;-84
2022/04/24 10:57:16;;;;;;;3.92;1.60;;;20.80;88.00;;;;;;5013810;28;20489;-84
2022/04/24 10:59:44;;;;;;;3.88;1.55;;;21.50;85.90;;;;;;5028406;28;20050;-85
2022/04/24 11:02:10;;;;;;;2.90;1.30;;;21.30;85.10;;;;;;5015200;28;20037;-85
2022/04/24 11:04:40;;;;;;;3.08;1.55;;;21.20;84.30;;;;;;5030335;28;20144;-85
2022/04/24 11:07:06;;;;;;;3.47;2.10;;;20.50;84.20;;;;;;5027842;28;20045;-86
2022/04/24 11:09:33;;;;;;;3.17;1.55;;;20.30;84.40;;;;;;5014900;28;20456;-86
2022/04/24 11:12:01;;;;;;;2.80;1.50;;;20.50;87.10;;;;;;5030872;28;20603;-78
2022/04/24 11:14:28;;;;;;;4.53;1.95;;;20.90;84.90;;;;;;5016371;28;20133;-79
2022/04/24 11:16:59;;;;;;;3.13;2.22;;;20.90;84.70;;;;;;5014916;28;20076;-79
2022/04/24 11:19:30;;;;;;;6.07;1.90;;;20.30;86.00;;;;;;5033594;28;20539;-77
2022/04/24 11:22:02;;;;;;;5.38;2.13;;;20.20;86.90;;;;;;5015154;28;20049;-77
2022/04/24 11:24:32;;;;;;;5.40;2.47;;;20.20;87.60;;;;;;5031007;28;20052;-79
2022/04/24 11:27:03;;;;;;;4.38;2.17;;;20.00;88.90;;;;;;5030641;28;20087;-78
2022/04/24 11:29:29;;;;;;;5.90;2.22;;;20.10;88.70;;;;;;5033380;28;20048;-81
2022/04/24 11:31:55;;;;;;;5.75;2.10;;;19.60;88.00;;;;;;5031147;28;20053;-79
2022/04/24 11:34:23;;;;;;;3.13;2.25;;;20.20;88.30;;;;;;5030388;28;20040;-82
2022/04/24 11:36:50;;;;;;;4.03;2.40;;;20.20;87.50;;;;;;5029638;28;20125;-81
2022/04/24 11:39:17;;;;;;;5.97;2.85;;;19.40;89.00;;;;;;5014126;28;20045;-81
2022/04/24 11:41:46;;;;;;;4.20;2.40;;;19.60;88.80;;;;;;5019372;28;20126;-82
2022/04/24 11:52:50;;;;;;;7.85;2.72;;;20.80;89.00;;;;;;5035029;28;20421;-80
2022/04/24 11:56:00;;;;;;;4.32;2.88;;;21.10;88.00;;;;;;5034708;28;20047;-80
2022/04/24 11:58:09;;;;;;;7.00;3.08;;;21.00;87.20;;;;;;5017898;28;20049;-81
2022/04/24 12:00:36;;;;;;;4.35;2.60;;;20.10;88.60;;;;;;5003300;28;20496;-77
2022/04/24 12:03:03;;;;;;;5.88;2.80;;;20.20;88.40;;;;;;5036633;28;20128;-78
2022/04/24 12:05:29;;;;;;;;;;;20.20;88.90;;;;;;5036168;28;20033;-82
2022/04/24 12:07:56;;;;;;;4.75;2.90;;;20.10;88.50;;;;;;5017860;28;20365;-80
2022/04/24 12:10:23;;;;;;;4.15;2.70;;;20.10;89.20;;;;;;5033080;28;20033;-82
2022/04/24 12:12:50;;;;;;;8.07;3.25;;;19.90;89.10;;;;;;5019645;28;20120;-81
2022/04/24 12:15:22;;;;;;;5.07;3.10;;;20.00;90.10;;;;;;5034397;28;20040;-81
2022/04/24 12:17:49;;;;;;;5.80;2.95;;;19.40;90.10;;;;;;5033029;28;20493;-80
2022/04/24 12:20:15;;;;;;;5.68;2.95;;;19.20;89.80;;;;;;5014670;28;20038;-79
2022/04/24 12:22:41;;;;;;;5.18;2.55;;;19.40;89.70;;;;;;5019262;28;20062;-81
2022/04/24 12:25:15;;;;;;;4.93;2.90;;;19.40;89.80;;;;;;5007545;28;20080;-78
2022/04/24 12:27:52;;;;;;;4.95;2.50;;;19.90;88.90;;;;;;5018585;28;20080;-89
2022/04/24 12:30:18;;;;;;;6.82;2.97;;;19.40;89.70;;;;;;5000833;28;20049;-80
2022/04/24 12:32:44;;;;;;;6.72;2.72;;;19.70;89.50;;;;;;5035889;28;20425;-81
2022/04/24 12:35:44;;;;;;;3.72;2.40;;;19.40;89.50;;;;;;5018460;28;20043;-79
2022/04/24 12:38:14;;;;;;;4.93;2.72;;;19.40;90.00;;;;;;5030454;28;20045;-80
2022/04/24 12:40:40;;;;;;;5.32;2.63;;;19.10;89.60;;;;;;5034790;28;20075;-80
2022/04/24 12:43:05;;;;;;;4.93;2.53;;;19.60;89.80;;;;;;5017991;28;20048;-81
2022/04/24 12:45:34;;;;;;;3.30;2.45;;;19.90;90.00;;;;;;5032711;28;20482;-80
2022/04/24 12:48:00;;;;;;;4.82;2.63;;;19.20;89.60;;;;;;5033156;28;20032;-81
2022/04/24 12:50:26;;;;;;;4.50;2.60;;;19.20;90.70;;;;;;5032041;28;20045;-80
2022/04/24 12:52:52;;;;;;;;;;;19.40;89.70;;;;;;5032541;28;20045;-87
2022/04/24 12:55:18;;;;;;;4.90;2.45;;;19.40;89.90;;;;;;5002423;28;19917;-78
2022/04/24 12:57:43;;;;;;;6.15;2.75;;;19.40;90.40;;;;;;5019732;28;20045;-78
2022/04/24 13:00:11;;;;;;;5.30;2.63;;;19.50;90.50;;;;;;5010331;28;20041;-80
2022/04/24 13:02:37;;;;;;;4.32;2.75;;;19.10;90.00;;;;;;5016711;28;20108;-80
2022/04/24 13:05:02;;;;;;;6.35;2.97;;;19.30;90.50;;;;;;5001646;28;20033;-80